createdAt,value
2022-11-25T00:02:22.543Z,11.02
2022-11-25T00:07:25.492Z,10.55
2022-11-25T00:12:28.312Z,10.25
2022-11-25T00:17:32.473Z,9.43
2022-11-25T00:22:35.398Z,10.15
2022-11-25T00:27:38.133Z,10.82
2022-11-25T00:32:42.357Z,9.32
2022-11-25T00:37:45.099Z,10.50
2022-11-25T00:43:05.271Z,10.40
2022-11-25T00:48:09.701Z,10.77
2022-11-25T00:53:12.449Z,11.25
2022-11-25T00:58:15.241Z,9.82
2022-11-25T01:03:19.380Z,10.40
2022-11-25T01:08:22.216Z,11.27
2022-11-25T01:13:24.909Z,10.27
2022-11-25T01:18:30.136Z,11.00
2022-11-25T01:23:32.951Z,14.50
2022-11-25T01:28:36.108Z,10.75
2022-11-25T01:33:40.261Z,10.68
2022-11-25T01:38:44.148Z,12.77
2022-11-25T01:44:19.207Z,11.07
2022-11-25T01:49:28.226Z,11.02
2022-11-25T01:54:35.101Z,11.13
2022-11-25T01:59:43.789Z,12.43
2022-11-25T02:04:48.946Z,11.20
2022-11-25T02:09:52.342Z,10.73
2022-11-25T02:14:56.712Z,11.30
2022-11-25T02:20:07.087Z,11.13
2022-11-25T02:25:16.149Z,12.00
2022-11-25T02:30:19.481Z,12.30
2022-11-25T02:35:31.746Z,11.73
2022-11-25T02:40:42.755Z,12.88
2022-11-25T02:45:52.750Z,12.90
2022-11-25T02:50:56.324Z,12.85
2022-11-25T02:56:00.825Z,13.52
2022-11-25T03:01:05.129Z,12.23
2022-11-25T03:06:08.508Z,11.30
2022-11-25T03:11:13.734Z,11.30
2022-11-25T03:16:16.583Z,11.40
2022-11-25T03:21:20.583Z,11.85
2022-11-25T03:26:25.974Z,11.60
2022-11-25T03:31:28.807Z,12.10
2022-11-25T03:36:31.866Z,11.77
2022-11-25T03:41:36.051Z,12.02
2022-11-25T03:46:38.938Z,11.43
2022-11-25T03:51:43.914Z,12.43
2022-11-25T03:56:50.071Z,12.88
2022-11-25T04:01:53.054Z,12.43
2022-11-25T04:06:56.050Z,12.48
2022-11-25T04:12:17.854Z,11.50
2022-11-25T04:17:28.905Z,12.50
2022-11-25T04:22:31.952Z,11.52
2022-11-25T04:27:37.347Z,12.15
2022-11-25T04:32:40.604Z,11.38
2022-11-25T04:37:45.056Z,11.85
2022-11-25T04:42:49.986Z,11.18
2022-11-25T04:47:56.047Z,12.47
2022-11-25T04:52:59.350Z,12.48
2022-11-25T04:58:04.049Z,11.75
2022-11-25T05:03:09.176Z,10.65
2022-11-25T05:08:14.289Z,11.60
2022-11-25T05:13:18.663Z,11.50
2022-11-25T05:18:21.468Z,10.52
2022-11-25T05:23:24.689Z,10.52
2022-11-25T05:28:29.760Z,10.52
2022-11-25T05:33:32.832Z,10.40
2022-11-25T05:38:35.822Z,10.45
2022-11-25T05:43:40.559Z,9.52
2022-11-25T05:48:43.920Z,9.63
2022-11-25T05:53:47.257Z,10.10
2022-11-25T05:58:51.743Z,9.60
2022-11-25T06:03:54.689Z,9.35
2022-11-25T06:08:57.579Z,9.40
2022-11-25T06:14:02.296Z,10.25
2022-11-25T06:19:06.749Z,10.65
2022-11-25T06:24:11.972Z,9.93
2022-11-25T06:29:17.974Z,10.05
2022-11-25T06:34:25.096Z,10.55
2022-11-25T06:39:28.108Z,10.13
2022-11-25T06:44:32.315Z,10.10
2022-11-25T06:49:35.112Z,10.32
2022-11-25T06:54:41.060Z,10.05
2022-11-25T06:59:45.295Z,11.38
2022-11-25T07:04:48.172Z,10.45
2022-11-25T07:09:50.898Z,10.23
2022-11-25T07:14:55.176Z,9.60
2022-11-25T07:19:57.880Z,9.70
2022-11-25T07:25:00.595Z,9.43
2022-11-25T07:35:28.088Z,9.63
2022-11-25T07:40:30.852Z,8.98
2022-11-25T07:45:35.413Z,9.02
2022-11-25T07:50:43.463Z,9.48
2022-11-25T07:55:46.269Z,8.68
2022-11-25T08:00:50.440Z,8.68
2022-11-25T08:05:53.334Z,9.00
2022-11-25T08:10:56.400Z,8.70
2022-11-25T08:16:01.568Z,8.63
2022-11-25T08:21:06.638Z,8.13
2022-11-25T08:26:11.449Z,7.47
2022-11-25T08:31:18.098Z,7.10
2022-11-25T08:36:21.975Z,7.22
2022-11-25T08:41:27.078Z,7.63
2022-11-25T08:46:36.412Z,7.18
2022-11-25T08:51:40.316Z,6.68
2022-11-25T08:56:43.887Z,7.10
2022-11-25T09:01:48.072Z,6.72
2022-11-25T09:06:51.028Z,8.02
2022-11-25T09:11:53.839Z,6.90
2022-11-25T09:16:58.024Z,7.03
2022-11-25T09:22:00.898Z,7.40
2022-11-25T09:27:03.716Z,6.90
2022-11-25T09:32:07.987Z,7.80
2022-11-25T09:37:13.023Z,7.35
2022-11-25T09:42:51.077Z,6.70
2022-11-25T09:48:03.870Z,7.47
2022-11-25T09:53:17.227Z,8.15
2022-11-25T09:58:30.387Z,7.22
2022-11-25T10:03:41.303Z,7.60
2022-11-25T10:08:46.633Z,7.03
2022-11-25T10:13:54.781Z,7.35
2022-11-25T10:19:01.878Z,8.35
2022-11-25T10:24:05.119Z,7.43
2022-11-25T10:29:22.930Z,7.38
2022-11-25T10:34:35.698Z,8.45
2022-11-25T10:39:38.603Z,7.60
2022-11-25T10:44:43.013Z,7.05
2022-11-25T10:50:00.805Z,19.30
2022-11-25T10:55:11.490Z,8.53
2022-11-25T11:00:28.715Z,7.68
2022-11-25T11:05:33.193Z,7.05
2022-11-25T11:10:36.434Z,7.25
2022-11-25T11:15:47.938Z,7.15
2022-11-25T11:20:54.159Z,7.20
2022-11-25T11:26:00.674Z,7.35
2022-11-25T11:31:08.142Z,33.63
2022-11-25T11:36:25.206Z,23.67
2022-11-25T11:41:38.445Z,7.38
2022-11-25T11:47:01.801Z,8.25
2022-11-25T11:52:16.591Z,7.00
2022-11-25T11:57:33.788Z,7.15
2022-11-25T12:02:46.787Z,7.25
2022-11-25T12:08:03.488Z,7.00
2022-11-25T12:13:13.949Z,7.90
2022-11-25T12:18:25.338Z,7.28
2022-11-25T12:23:41.121Z,6.97
2022-11-25T12:28:49.985Z,6.55
2022-11-25T12:34:03.084Z,7.38
2022-11-25T12:39:18.003Z,7.45
2022-11-25T12:44:26.424Z,7.20
2022-11-25T12:49:30.802Z,6.60
2022-11-25T12:54:58.588Z,7.32
2022-11-25T13:06:05.783Z,7.43
2022-11-25T13:11:26.446Z,7.22
2022-11-25T13:16:30.626Z,8.00
2022-11-25T13:21:33.717Z,8.60
2022-11-25T13:26:48.142Z,7.30
2022-11-25T13:31:59.895Z,7.03
2022-11-25T13:37:23.787Z,8.13
2022-11-25T13:42:28.856Z,7.13
2022-11-25T13:47:37.634Z,7.93
2022-11-25T13:52:48.076Z,8.25
2022-11-25T13:58:17.856Z,7.85
2022-11-25T14:03:46.692Z,7.82
2022-11-25T14:08:57.225Z,6.60
2022-11-25T14:14:20.680Z,7.85
2022-11-25T14:19:52.769Z,8.38
2022-11-25T14:25:17.924Z,8.27
2022-11-25T14:30:24.145Z,8.48
2022-11-25T14:35:31.495Z,17.73
2022-11-25T14:40:39.637Z,9.50
2022-11-25T14:45:43.967Z,8.68
2022-11-25T14:50:56.665Z,8.35
2022-11-25T14:56:02.390Z,9.65
2022-11-25T15:01:08.818Z,8.70
2022-11-25T15:06:14.766Z,8.88
2022-11-25T15:11:19.791Z,9.25
2022-11-25T15:16:27.108Z,11.25
2022-11-25T15:21:31.710Z,9.45
2022-11-25T15:26:36.483Z,9.15
2022-11-25T15:31:41.645Z,10.27
2022-11-25T15:36:45.165Z,10.75
2022-11-25T15:41:50.798Z,10.48
2022-11-25T15:47:00.365Z,10.98
2022-11-25T15:52:08.426Z,12.20
2022-11-25T15:57:18.783Z,10.90
2022-11-25T16:02:38.101Z,12.15
2022-11-25T16:07:41.682Z,9.68
2022-11-25T16:12:44.467Z,10.68
2022-11-25T16:17:48.681Z,10.32
2022-11-25T16:22:51.443Z,13.32
2022-11-25T16:27:54.265Z,14.20
2022-11-25T16:32:58.744Z,11.55
2022-11-25T16:38:01.465Z,11.32
2022-11-25T16:43:04.658Z,11.40
2022-11-25T16:48:16.984Z,12.48
2022-11-25T16:53:19.876Z,14.02
2022-11-25T16:58:25.072Z,12.25
2022-11-25T17:03:29.550Z,14.30
2022-11-25T17:08:32.425Z,13.00
2022-11-25T17:13:35.691Z,12.70
2022-11-25T17:18:39.910Z,14.27
2022-11-25T17:23:43.343Z,17.40
2022-11-25T17:28:54.085Z,14.07
2022-11-25T17:33:58.367Z,14.00
2022-11-25T17:39:01.115Z,15.63
2022-11-25T17:44:03.904Z,18.85
2022-11-25T17:49:14.876Z,16.42
2022-11-25T17:54:17.710Z,15.40
2022-11-25T17:59:26.701Z,15.23
2022-11-25T18:04:34.182Z,17.08
2022-11-25T18:09:37.027Z,17.63
2022-11-25T18:14:40.903Z,17.45
2022-11-25T18:19:49.785Z,20.70
2022-11-25T18:24:57.673Z,17.33
2022-11-25T18:30:02.513Z,18.50
2022-11-25T18:35:16.385Z,21.83
2022-11-25T18:40:19.648Z,22.13
2022-11-25T18:45:24.648Z,17.30
2022-11-25T18:50:29.002Z,16.38
2022-11-25T18:55:32.148Z,19.50
2022-11-25T19:00:35.038Z,24.02
2022-11-25T19:05:45.873Z,31.48
2022-11-25T19:10:50.407Z,26.75
2022-11-25T19:15:58.796Z,22.27
2022-11-25T19:21:02.932Z,18.70
2022-11-25T19:26:12.395Z,21.38
2022-11-25T19:31:15.295Z,19.10
2022-11-25T19:36:24.663Z,22.65
2022-11-25T19:41:30.725Z,20.38
2022-11-25T19:46:52.702Z,21.27
2022-11-25T19:52:03.779Z,19.52
2022-11-25T19:57:19.483Z,18.27
2022-11-25T20:02:50.511Z,20.38
2022-11-25T20:07:57.388Z,22.48
2022-11-25T20:13:00.908Z,19.20
2022-11-25T20:18:05.261Z,18.77
2022-11-25T20:23:25.701Z,17.33
2022-11-25T20:28:41.428Z,17.33
2022-11-25T20:33:54.014Z,16.52
2022-11-25T20:39:26.607Z,19.70
2022-11-25T20:44:29.576Z,17.60
2022-11-25T20:49:33.734Z,17.30
2022-11-25T20:54:54.591Z,17.10
2022-11-25T20:59:57.952Z,18.75
2022-11-25T21:05:00.956Z,15.68
2022-11-25T21:10:22.679Z,16.98
2022-11-25T21:15:27.408Z,17.35
2022-11-25T21:20:30.307Z,19.13
2022-11-25T21:25:35.817Z,15.00
2022-11-25T21:30:51.305Z,12.98
2022-11-25T21:42:21.782Z,12.68
2022-11-25T21:47:43.636Z,11.93
2022-11-25T22:04:47.211Z,9.70
2022-11-25T22:09:50.415Z,9.93
2022-11-25T22:14:55.207Z,10.30
2022-11-25T22:19:58.362Z,9.68
2022-11-25T22:25:01.170Z,9.82
2022-11-25T22:30:06.364Z,9.45
2022-11-25T22:35:15.525Z,10.63
2022-11-25T22:40:18.320Z,10.60
2022-11-25T22:45:28.731Z,9.90
2022-11-25T22:50:33.879Z,10.10
2022-11-25T22:55:36.727Z,9.73
2022-11-25T23:00:44.844Z,9.60
2022-11-25T23:05:48.575Z,10.48
2022-11-25T23:10:52.597Z,10.18
2022-11-25T23:15:58.303Z,9.23
2022-11-25T23:21:01.102Z,9.48
2022-11-25T23:26:03.866Z,9.90
2022-11-25T23:31:12.788Z,10.27
2022-11-25T23:36:18.967Z,10.95
2022-11-25T23:41:23.636Z,11.48
2022-11-25T23:53:58.354Z,9.57
2022-11-25T23:59:30.948Z,9.25
